If you wish to contribute or participate in the discussions about articles you are invited to join SKYbrary as a registered user

 Actions

Andravida Air Base

From SKYbrary Wiki

LGAD
Airport
ICAO: LGAD – IATA: PYR
Summary
Name Andravida Air Base
Region Europe
Territory Greece GR.gif
Location Andravida, Western Greece
Serving Andravida
Elevation 16.764 m <br />55 ft16.764 m <br />
Coordinates 37° 55' 14.52" N, 21° 17' 33.36" E
Runways
Designator Length Width Surface ROPS
16/34 3139 m10,298.556 ft <br /> 45 m147.638 ft <br /> ASP /


METAR
Observation LGAD 250020Z 04004KT 9999 -RA BKN025 BKN080 16/15 Q1021
Station Andravida Airport
Date/Time 25 October 2021 00:20:00
Wind direction 40°
Wind speed 04 kts
Lowest cloud amount broken clouds
Temperature 16°C
Dew point 15°C
Humidity 93%
QNH 1021 hPa
Weather condition light rain

Andravida Air Base is a military airport operated by the Hellenic Air Force, located 1.5 nm from the town of Andravida in Elis, Greece.

Climatology

Warm mediterranean climate (Köppen climate classification Csa)

Maps

Terrain

Loading map...

Airport Layout

Loading map...


Accidents & Serious Incidents at or in vicinity of LGAD

None on SKYbrary